Time;durP1;ratioP1;P1;durP2;ratioP2;P2;SDS_P1;SDS_P2;PMS_P1;PMS_P2;Temp;Humidity;BMP_temperature;BMP_pressure;BME280_temperature;BME280_humidity;BME280_pressure;Samples;Min_cycle;Max_cycle;Signal;HPM_P1;HPM_P2
2022/01/02 00:00:40;;;;;;;4.70;2.20;;;;;;101313.02;;;;107007;1277;64076;-29
2022/01/02 00:03:19;;;;;;;5.70;1.80;;;;;;101316.52;;;;106936;1279;67092;-41
2022/01/02 00:05:46;;;;;;;6.10;1.90;;;;;;101310.39;;;;106997;1277;63305;-32
2022/01/02 00:08:15;;;;;;;6.50;2.20;;;;;;101302.95;;;;106972;1278;64142;-31
2022/01/02 00:10:53;;;;;;;4.00;1.80;;;;;;101301.59;;;;106980;1277;63898;-36
2022/01/02 00:13:30;;;;;;;4.90;2.00;;;;;;101301.67;;;;107006;1278;64068;-34
2022/01/02 00:16:04;;;;;;;4.60;2.20;;;;;;101301.50;;;;106989;1277;66286;-35
2022/01/02 00:18:35;;;;;;;4.50;2.10;;;;;;101304.50;;;;106968;1278;63910;-35
2022/01/02 00:21:08;;;;;;;4.60;2.00;;;;;;101309.81;;;;106917;1279;64076;-32
2022/01/02 00:23:59;;;;;;;4.60;2.10;;;;;;101307.21;;;;106932;1279;64136;-33
2022/01/02 00:26:44;;;;;;;4.20;1.90;;;;;;101301.62;;;;107009;1279;63808;-34
2022/01/02 00:29:12;;;;;;;5.30;2.10;;;;;;101298.69;;;;107000;1279;66543;-35
2022/01/02 00:31:41;;;;;;;5.00;1.90;;;;;;101299.91;;;;106918;1279;63924;-32
2022/01/02 00:34:09;;;;;;;6.20;2.30;;;;;;101308.78;;;;107001;1278;62756;-32
2022/01/02 00:36:40;;;;;;;4.40;1.70;;;;;;101308.38;;;;106999;1278;63963;-30
2022/01/02 00:39:08;;;;;;;4.50;2.10;;;;;;101306.25;;;;107007;1278;64032;-34
2022/01/02 00:41:58;;;;;;;4.10;1.90;;;;;;101303.08;;;;107001;1278;64155;-27
2022/01/02 00:44:58;;;;;;;4.40;1.90;;;;;;101299.16;;;;106986;1279;64168;-30
2022/01/02 00:47:45;;;;;;;4.90;2.00;;;;;;101296.27;;;;106971;1279;64059;-31
2022/01/02 00:50:20;;;;;;;4.80;1.90;;;;;;101292.99;;;;106980;1279;64404;-27
2022/01/02 00:52:49;;;;;;;4.20;1.90;;;;;;101295.71;;;;107000;1279;64068;-30
2022/01/02 00:55:23;;;;;;;4.20;2.00;;;;;;101294.67;;;;107000;1278;64815;-31
2022/01/02 00:57:59;;;;;;;4.00;1.70;;;;;;101297.77;;;;106928;1278;63975;-31
2022/01/02 01:00:28;;;;;;;4.60;1.80;;;;;;101290.99;;;;107010;1278;64070;-30
2022/01/02 01:02:58;;;;;;;4.50;1.90;;;;;;101287.78;;;;106749;1279;331183;-30
2022/01/02 01:05:32;;;;;;;5.00;2.00;;;;;;101280.83;;;;107000;1279;64029;-39
2022/01/02 01:08:05;;;;;;;3.80;1.80;;;;;;101274.23;;;;106994;1278;66528;-34
2022/01/02 01:10:43;;;;;;;4.50;1.90;;;;;;101273.39;;;;106929;1279;64372;-31
2022/01/02 01:13:12;;;;;;;4.30;1.80;;;;;;101274.95;;;;107000;1278;64055;-28
2022/01/02 01:15:39;;;;;;;4.00;1.70;;;;;;101272.70;;;;106920;1281;64376;-27
2022/01/02 01:18:07;;;;;;;4.30;1.90;;;;;;101275.02;;;;106988;1278;63995;-34
2022/01/02 01:20:42;;;;;;;4.80;1.80;;;;;;101268.95;;;;106943;1279;65669;-30
2022/01/02 01:23:15;;;;;;;3.50;1.60;;;;;;101266.16;;;;106999;1279;63959;-29
2022/01/02 01:25:45;;;;;;;3.90;1.80;;;;;;101262.32;;;;106954;1278;64036;-28
2022/01/02 01:28:15;;;;;;;3.60;1.60;;;;;;101258.14;;;;106938;1279;63958;-32
2022/01/02 01:30:43;;;;;;;4.50;1.90;;;;;;101257.45;;;;106961;1279;64011;-31
2022/01/02 01:33:11;;;;;;;4.70;1.80;;;;;;101255.33;;;;106932;1279;65625;-30
2022/01/02 01:35:40;;;;;;;4.30;1.80;;;;;;101258.23;;;;106974;1278;64033;-34
2022/01/02 01:38:09;;;;;;;6.10;1.90;;;;;;101249.83;;;;106957;1278;63951;-34
2022/01/02 01:40:47;;;;;;;4.80;2.00;;;;;;101240.08;;;;106962;1278;64062;-35
2022/01/02 01:43:15;;;;;;;4.50;1.90;;;;;;101223.05;;;;106966;1279;63952;-31
2022/01/02 01:45:43;;;;;;;4.20;1.70;;;;;;101212.54;;;;107000;1279;63963;-32
2022/01/02 01:48:10;;;;;;;4.90;2.00;;;;;;101216.66;;;;106950;1279;64073;-30
2022/01/02 01:50:41;;;;;;;4.40;1.60;;;;;;101220.19;;;;106981;1279;63939;-28
2022/01/02 01:53:09;;;;;;;3.60;1.60;;;;;;101218.57;;;;106958;1279;63965;-41
2022/01/02 01:55:38;;;;;;;4.10;1.50;;;;;;101210.63;;;;106981;1279;63927;-42
2022/01/02 01:58:07;;;;;;;4.80;1.80;;;;;;101209.86;;;;106931;1279;65138;-39
2022/01/02 02:00:35;;;;;;;3.70;1.80;;;;;;101206.29;;;;107059;1279;64048;-42
2022/01/02 02:03:03;;;;;;;3.90;1.90;;;;;;101205.20;;;;106940;1278;63897;-40
2022/01/02 02:05:30;;;;;;;3.80;1.70;;;;;;101203.80;;;;107032;1279;64095;-40
2022/01/02 02:07:58;;;;;;;4.60;2.00;;;;;;101204.09;;;;107027;1279;64039;-40
2022/01/02 02:10:33;;;;;;;3.90;1.90;;;;;;101201.23;;;;106966;1279;64237;-30
2022/01/02 02:13:03;;;;;;;4.70;1.70;;;;;;101196.76;;;;106983;1279;64064;-29
2022/01/02 02:15:34;;;;;;;3.70;1.80;;;;;;101194.23;;;;106926;1279;64076;-41
2022/01/02 02:18:02;;;;;;;4.20;2.00;;;;;;101192.66;;;;106991;1277;63985;-41
2022/01/02 02:20:36;;;;;;;4.00;1.60;;;;;;101188.77;;;;107057;1279;63960;-40
2022/01/02 02:23:03;;;;;;;;;;;;;;101183.42;;;;107026;1279;65310;-40
2022/01/02 02:25:35;;;;;;;4.50;1.70;;;;;;101180.80;;;;106988;1279;63907;-42
2022/01/02 02:28:06;;;;;;;4.50;1.90;;;;;;101179.40;;;;106992;1278;63958;-41
2022/01/02 02:30:36;;;;;;;4.20;1.70;;;;;;101176.83;;;;106965;1279;64029;-30
2022/01/02 02:33:06;;;;;;;4.40;1.80;;;;;;101169.67;;;;106965;1279;64725;-33
2022/01/02 02:35:35;;;;;;;4.10;1.90;;;;;;101167.29;;;;107005;1279;65702;-29
2022/01/02 02:38:06;;;;;;;4.80;2.10;;;;;;101165.68;;;;106951;1279;63976;-29
2022/01/02 02:40:34;;;;;;;3.50;1.70;;;;;;101161.61;;;;106997;1279;64050;-40
2022/01/02 02:43:07;;;;;;;4.70;2.30;;;;;;101164.58;;;;107006;1278;63944;-40
2022/01/02 02:51:12;;;;;;;3.60;1.80;;;;;;101172.02;;;;106962;1278;64036;-30
2022/01/02 02:53:45;;;;;;;3.90;2.10;;;;;;101166.66;;;;106950;1278;64097;-40
2022/01/02 02:56:57;;;;;;;;;;;;;;101166.91;;;;107007;1278;64030;-29
2022/01/02 02:59:05;;;;;;;4.90;2.00;;;;;;101158.34;;;;106946;1279;63870;-29
2022/01/02 03:01:32;;;;;;;4.30;1.80;;;;;;101156.52;;;;106959;1278;65370;-30
2022/01/02 03:03:59;;;;;;;4.10;1.90;;;;;;101150.27;;;;106955;1279;63939;-29
2022/01/02 03:06:26;;;;;;;3.70;1.60;;;;;;101150.31;;;;106898;1279;64164;-29
2022/01/02 03:08:54;;;;;;;4.00;1.80;;;;;;101146.52;;;;106973;1279;64075;-41
2022/01/02 03:11:23;;;;;;;4.10;1.90;;;;;;101143.65;;;;106994;1279;64026;-41
2022/01/02 03:13:52;;;;;;;4.20;1.90;;;;;;101143.00;;;;106927;1278;66862;-39
2022/01/02 03:16:19;;;;;;;4.30;1.70;;;;;;101135.46;;;;107008;1278;64016;-39
2022/01/02 03:18:46;;;;;;;3.00;1.40;;;;;;101126.59;;;;107019;1279;63950;-40
2022/01/02 03:21:13;;;;;;;4.30;1.60;;;;;;101120.20;;;;106905;1278;63946;-40
2022/01/02 03:23:41;;;;;;;4.90;2.10;;;;;;101110.01;;;;106939;1278;63933;-40
2022/01/02 03:26:08;;;;;;;4.60;1.90;;;;;;101102.38;;;;106985;1279;64908;-41
2022/01/02 03:28:36;;;;;;;5.50;2.10;;;;;;101093.48;;;;106921;1279;64061;-28
2022/01/02 03:31:04;;;;;;;4.60;1.80;;;;;;101092.00;;;;106975;1279;63939;-29
2022/01/02 03:33:31;;;;;;;4.50;1.80;;;;;;101094.19;;;;106924;1278;63960;-28
2022/01/02 03:35:58;;;;;;;4.10;1.80;;;;;;101096.98;;;;107020;1279;64019;-29
2022/01/02 03:38:26;;;;;;;4.00;2.00;;;;;;101089.13;;;;106992;1279;64404;-29
2022/01/02 03:40:53;;;;;;;3.70;1.70;;;;;;101084.96;;;;106971;1279;64068;-28
2022/01/02 03:43:20;;;;;;;4.20;1.90;;;;;;101081.42;;;;107009;1278;63810;-39
2022/01/02 03:45:48;;;;;;;5.00;1.80;;;;;;101077.14;;;;106921;1278;64127;-40
2022/01/02 03:48:15;;;;;;;4.00;1.60;;;;;;101071.86;;;;107029;1278;64154;-41
2022/01/02 03:50:42;;;;;;;4.40;1.70;;;;;;101070.27;;;;106922;1278;65097;-40
2022/01/02 03:53:10;;;;;;;4.70;2.00;;;;;;101070.70;;;;106960;1279;64025;-28
2022/01/02 03:55:39;;;;;;;4.00;1.90;;;;;;101068.89;;;;106988;1279;64056;-29
2022/01/02 03:58:06;;;;;;;4.40;1.70;;;;;;101061.69;;;;106920;1278;63927;-40
2022/01/02 04:00:34;;;;;;;3.80;1.60;;;;;;101055.40;;;;106992;1278;63935;-39
2022/01/02 04:03:01;;;;;;;3.70;1.60;;;;;;101048.54;;;;106992;1277;64337;-40
2022/01/02 04:05:28;;;;;;;4.20;1.90;;;;;;101037.73;;;;106980;1279;63980;-40
2022/01/02 04:07:56;;;;;;;4.60;1.90;;;;;;101034.46;;;;106995;1279;63987;-40
2022/01/02 04:10:23;;;;;;;3.70;1.90;;;;;;101034.86;;;;106947;1279;64065;-39
2022/01/02 04:12:50;;;;;;;5.50;2.00;;;;;;101036.35;;;;106831;1279;63968;-39
2022/01/02 04:15:17;;;;;;;4.10;1.70;;;;;;101030.45;;;;106967;1279;64460;-28
2022/01/02 04:17:44;;;;;;;3.80;1.90;;;;;;101026.71;;;;106937;1279;63937;-28
2022/01/02 04:20:15;;;;;;;4.00;1.70;;;;;;101021.50;;;;107004;1278;64039;-39
2022/01/02 04:22:42;;;;;;;3.80;1.90;;;;;;101017.36;;;;106990;1278;63918;-40
2022/01/02 04:25:11;;;;;;;3.90;1.60;;;;;;101003.46;;;;107029;1279;64023;-41
2022/01/02 04:27:39;;;;;;;3.40;1.80;;;;;;100987.73;;;;107005;1279;64966;-43
2022/01/02 04:30:10;;;;;;;3.90;1.70;;;;;;100982.55;;;;106993;1278;63962;-29
2022/01/02 04:32:38;;;;;;;4.40;1.90;;;;;;100971.52;;;;107001;1278;64022;-29
2022/01/02 04:35:05;;;;;;;4.70;1.80;;;;;;100961.13;;;;106978;1279;63987;-35
2022/01/02 04:37:33;;;;;;;3.90;1.80;;;;;;100954.27;;;;107040;1279;63982;-30
2022/01/02 04:40:00;;;;;;;4.40;1.80;;;;;;100947.08;;;;107043;1279;65276;-41
2022/01/02 04:42:28;;;;;;;4.20;1.90;;;;;;100939.22;;;;106983;1279;63920;-41
2022/01/02 04:44:55;;;;;;;4.40;2.10;;;;;;100927.84;;;;106998;1279;64055;-41
2022/01/02 04:47:22;;;;;;;4.30;1.80;;;;;;100923.84;;;;106961;1277;64009;-41
2022/01/02 04:49:49;;;;;;;4.10;1.70;;;;;;100919.80;;;;106995;1278;63991;-39
2022/01/02 04:52:16;;;;;;;3.90;1.80;;;;;;100911.67;;;;107011;1279;65745;-53
2022/01/02 04:54:44;;;;;;;3.70;2.00;;;;;;100911.86;;;;106984;1279;64046;-31
2022/01/02 04:57:11;;;;;;;4.90;2.00;;;;;;100911.15;;;;106986;1278;63939;-29
2022/01/02 04:59:38;;;;;;;4.20;2.20;;;;;;100905.94;;;;106973;1279;61471;-40
2022/01/02 05:02:05;;;;;;;4.80;2.00;;;;;;100911.84;;;;106995;1279;63921;-40
2022/01/02 05:04:32;;;;;;;3.90;1.90;;;;;;100905.25;;;;106969;1278;65662;-40
2022/01/02 05:07:00;;;;;;;4.80;2.00;;;;;;100900.89;;;;106933;1279;64065;-41
2022/01/02 05:09:27;;;;;;;3.60;1.80;;;;;;100906.10;;;;106915;1278;64080;-29
2022/01/02 05:11:55;;;;;;;4.20;1.90;;;;;;100905.49;;;;106929;1279;64076;-29
2022/01/02 05:14:22;;;;;;;4.20;1.80;;;;;;100910.92;;;;107037;1279;63950;-30
2022/01/02 05:16:49;;;;;;;4.30;1.70;;;;;;100915.73;;;;106974;1279;64174;-30
2022/01/02 05:19:18;;;;;;;4.30;2.00;;;;;;100907.23;;;;106965;1278;64025;-28
2022/01/02 05:21:45;;;;;;;3.90;1.70;;;;;;100894.88;;;;106905;1279;64102;-28
2022/01/02 05:24:13;;;;;;;4.50;2.10;;;;;;100890.73;;;;106989;1279;63972;-40
2022/01/02 05:26:40;;;;;;;3.60;1.80;;;;;;100885.87;;;;106967;1279;64124;-40
2022/01/02 05:29:08;;;;;;;4.50;1.90;;;;;;100875.34;;;;106982;1279;65354;-39
2022/01/02 05:31:35;;;;;;;4.20;1.70;;;;;;100865.29;;;;106806;1279;64076;-40
2022/01/02 05:34:03;;;;;;;3.80;1.80;;;;;;100855.08;;;;106889;1278;63924;-30
2022/01/02 05:36:30;;;;;;;3.00;1.60;;;;;;100850.40;;;;106969;1278;64177;-32
2022/01/02 05:38:57;;;;;;;3.80;1.50;;;;;;100845.22;;;;106900;1279;63780;-40
2022/01/02 05:41:27;;;;;;;4.70;2.00;;;;;;100847.25;;;;106980;1279;65136;-40
2022/01/02 05:43:55;;;;;;;3.80;1.70;;;;;;100844.39;;;;106892;1279;63937;-40
2022/01/02 05:46:23;;;;;;;3.60;1.70;;;;;;100834.02;;;;106967;1278;63923;-41
2022/01/02 05:48:50;;;;;;;4.00;1.50;;;;;;100827.74;;;;106951;1279;63871;-41
2022/01/02 05:51:18;;;;;;;4.00;1.90;;;;;;100816.98;;;;107005;1279;64065;-39
2022/01/02 05:53:45;;;;;;;3.00;1.40;;;;;;100815.58;;;;106983;1278;64064;-42
2022/01/02 05:56:12;;;;;;;4.60;1.80;;;;;;100807.54;;;;106969;1278;63899;-45
2022/01/02 05:58:40;;;;;;;4.00;1.60;;;;;;100806.74;;;;106940;1278;64036;-39
2022/01/02 06:01:07;;;;;;;3.20;1.80;;;;;;100811.43;;;;106939;1279;63971;-39
2022/01/02 06:03:35;;;;;;;4.00;1.90;;;;;;100811.98;;;;106979;1279;64055;-28
2022/01/02 06:06:03;;;;;;;4.00;1.90;;;;;;100818.35;;;;106883;1279;64088;-29
2022/01/02 06:08:30;;;;;;;3.90;2.00;;;;;;100821.91;;;;106798;1281;64091;-32
2022/01/02 06:10:58;;;;;;;4.20;1.60;;;;;;100810.50;;;;106977;1277;63938;-28
2022/01/02 06:13:25;;;;;;;3.90;1.80;;;;;;100803.98;;;;106942;1278;64052;-39
2022/01/02 06:15:53;;;;;;;3.60;1.60;;;;;;100797.95;;;;106917;1279;63903;-40
2022/01/02 06:18:20;;;;;;;4.00;1.80;;;;;;100798.62;;;;106999;1278;66657;-29
2022/01/02 06:20:48;;;;;;;4.40;1.80;;;;;;100795.10;;;;106982;1279;63950;-31
2022/01/02 06:23:16;;;;;;;5.30;1.90;;;;;;100795.97;;;;106980;1279;64135;-28
2022/01/02 06:25:44;;;;;;;4.20;1.90;;;;;;100796.29;;;;106957;1278;63913;-29
2022/01/02 06:28:13;;;;;;;4.50;2.50;;;;;;100803.45;;;;106991;1278;63822;-28
2022/01/02 06:30:40;;;;;;;4.50;1.80;;;;;;100793.56;;;;107008;1279;65666;-28
2022/01/02 06:33:08;;;;;;;4.40;2.00;;;;;;100780.91;;;;106980;1279;65109;-29
2022/01/02 06:35:35;;;;;;;4.20;2.10;;;;;;100773.77;;;;106897;1279;64013;-29
2022/01/02 06:38:18;;;;;;;3.90;1.80;;;;;;100770.52;;;;106978;1279;64139;-29
2022/01/02 06:40:45;;;;;;;4.70;1.70;;;;;;100755.95;;;;106985;1279;63954;-49
2022/01/02 06:43:14;;;;;;;3.90;1.80;;;;;;100748.32;;;;106978;1277;65641;-38
2022/01/02 06:45:46;;;;;;;3.80;1.80;;;;;;100743.55;;;;106978;1279;63904;-40
2022/01/02 06:48:13;;;;;;;4.20;2.00;;;;;;100741.19;;;;106985;1279;64011;-32
2022/01/02 06:50:41;;;;;;;4.20;1.90;;;;;;100738.77;;;;106918;1278;63960;-30
2022/01/02 06:53:08;;;;;;;4.80;2.20;;;;;;100733.06;;;;106971;1279;65122;-29
2022/01/02 06:55:36;;;;;;;3.90;1.90;;;;;;100726.35;;;;106987;1278;65626;-29
2022/01/02 06:58:06;;;;;;;4.20;1.90;;;;;;100734.67;;;;106992;1279;63997;-30
2022/01/02 07:00:34;;;;;;;3.90;2.20;;;;;;100725.96;;;;107023;1279;64047;-29
2022/01/02 07:03:01;;;;;;;4.00;1.90;;;;;;100728.21;;;;107030;1280;64166;-31
2022/01/02 07:05:28;;;;;;;4.50;2.00;;;;;;100725.86;;;;107029;1278;63959;-40
2022/01/02 07:07:56;;;;;;;4.30;1.90;;;;;;100725.14;;;;106997;1278;63962;-40
2022/01/02 07:10:23;;;;;;;4.10;1.90;;;;;;100736.42;;;;106984;1279;65126;-29
2022/01/02 07:12:51;;;;;;;4.50;1.90;;;;;;100725.90;;;;106971;1279;64170;-29
2022/01/02 07:15:18;;;;;;;4.30;2.20;;;;;;100731.46;;;;106949;1279;64043;-29
2022/01/02 07:17:45;;;;;;;4.80;2.20;;;;;;100733.58;;;;107002;1279;63927;-28
2022/01/02 07:20:13;;;;;;;4.20;2.00;;;;;;100725.16;;;;106997;1278;64436;-41
2022/01/02 07:22:42;;;;;;;4.40;2.10;;;;;;100717.33;;;;106954;1278;64081;-40
2022/01/02 07:25:10;;;;;;;4.20;2.10;;;;;;100709.78;;;;106945;1279;64040;-40
2022/01/02 07:27:38;;;;;;;4.70;2.40;;;;;;100704.67;;;;106967;1279;63902;-40
2022/01/02 07:30:08;;;;;;;4.70;2.30;;;;;;100697.58;;;;106985;1278;64037;-30
2022/01/02 07:32:37;;;;;;;4.40;2.40;;;;;;100691.98;;;;106996;1279;65123;-31
2022/01/02 07:35:06;;;;;;;4.40;2.20;;;;;;100697.64;;;;106969;1278;64201;-40
2022/01/02 07:37:34;;;;;;;4.50;2.40;;;;;;100698.15;;;;106952;1279;64050;-41
2022/01/02 07:40:06;;;;;;;5.00;2.30;;;;;;100685.91;;;;106954;1279;64626;-39
2022/01/02 07:42:34;;;;;;;4.80;2.40;;;;;;100674.84;;;;107058;1278;63940;-40
2022/01/02 07:45:01;;;;;;;4.60;2.30;;;;;;100669.73;;;;106964;1278;64050;-28
2022/01/02 07:47:28;;;;;;;4.60;2.30;;;;;;100665.58;;;;106952;1278;63935;-28
2022/01/02 07:49:55;;;;;;;5.10;2.40;;;;;;100661.55;;;;106991;1281;63936;-29
2022/01/02 07:52:23;;;;;;;4.50;2.30;;;;;;100657.45;;;;106962;1277;64084;-29
2022/01/02 07:54:50;;;;;;;5.20;2.60;;;;;;100642.98;;;;106972;1279;64023;-40
2022/01/02 07:57:19;;;;;;;4.50;2.30;;;;;;100635.80;;;;106993;1278;65359;-41
2022/01/02 07:59:46;;;;;;;4.90;2.30;;;;;;100629.78;;;;106968;1277;63960;-28
2022/01/02 08:02:14;;;;;;;5.40;2.70;;;;;;100628.31;;;;106931;1281;63940;-29
2022/01/02 08:04:41;;;;;;;4.50;2.30;;;;;;100622.35;;;;106964;1279;64054;-40
2022/01/02 08:07:08;;;;;;;5.10;2.80;;;;;;100610.81;;;;107019;1278;64063;-40
2022/01/02 08:09:35;;;;;;;5.00;2.40;;;;;;100612.56;;;;106980;1278;64727;-39
2022/01/02 08:12:03;;;;;;;5.60;2.90;;;;;;100610.73;;;;106923;1281;64109;-40
2022/01/02 08:14:31;;;;;;;5.00;2.50;;;;;;100609.17;;;;107001;1281;64056;-40
2022/01/02 08:16:58;;;;;;;5.00;2.50;;;;;;100603.70;;;;106962;1281;63941;-41
2022/01/02 08:19:26;;;;;;;4.60;2.50;;;;;;100604.48;;;;106979;1278;63964;-30
2022/01/02 08:21:53;;;;;;;5.90;3.20;;;;;;100616.42;;;;106936;1279;65068;-29
2022/01/02 08:24:20;;;;;;;5.30;3.00;;;;;;100614.78;;;;106962;1278;63953;-41
2022/01/02 08:26:47;;;;;;;4.80;2.90;;;;;;100613.36;;;;106967;1278;64096;-42
2022/01/02 08:29:15;;;;;;;5.30;2.60;;;;;;100619.68;;;;106979;1282;65701;-39
2022/01/02 08:31:42;;;;;;;5.40;2.60;;;;;;100626.63;;;;107001;1278;63904;-40
2022/01/02 08:34:09;;;;;;;5.60;3.40;;;;;;100622.13;;;;106952;1278;64108;-30
2022/01/02 08:36:36;;;;;;;4.90;3.10;;;;;;100610.75;;;;106963;1282;63969;-29
2022/01/02 08:39:04;;;;;;;5.50;3.00;;;;;;100593.56;;;;106937;1281;64090;-40
2022/01/02 08:41:31;;;;;;;5.10;2.90;;;;;;100600.86;;;;106947;1278;63953;-42
2022/01/02 08:43:58;;;;;;;5.10;2.90;;;;;;100598.81;;;;106990;1278;64140;-28
2022/01/02 08:46:25;;;;;;;5.40;3.00;;;;;;100599.85;;;;106979;1279;65712;-31
2022/01/02 08:48:52;;;;;;;5.30;3.10;;;;;;100613.84;;;;106985;1278;63758;-29
2022/01/02 08:51:19;;;;;;;5.40;3.00;;;;;;100605.06;;;;106964;1281;63903;-29
2022/01/02 08:53:46;;;;;;;5.90;3.20;;;;;;100594.55;;;;106919;1279;64092;-41
2022/01/02 08:56:14;;;;;;;5.40;3.00;;;;;;100586.68;;;;107000;1281;63935;-41
2022/01/02 08:58:42;;;;;;;6.30;3.10;;;;;;100577.34;;;;106942;1278;64045;-40
2022/01/02 09:01:09;;;;;;;5.90;3.20;;;;;;100574.36;;;;106717;1278;335727;-38
2022/01/02 09:03:36;;;;;;;7.00;3.30;;;;;;100571.40;;;;106959;1278;64021;-29
2022/01/02 09:06:03;;;;;;;6.30;3.50;;;;;;100560.39;;;;106962;1282;64758;-28
2022/01/02 09:08:31;;;;;;;5.00;2.90;;;;;;100549.95;;;;107010;1279;63953;-41
2022/01/02 09:10:58;;;;;;;6.50;3.50;;;;;;100542.52;;;;107002;1278;65625;-40
2022/01/02 09:13:26;;;;;;;5.80;3.60;;;;;;100541.55;;;;106955;1277;64162;-40
2022/01/02 09:15:54;;;;;;;5.70;3.40;;;;;;100538.52;;;;106908;1281;63961;-41
2022/01/02 09:18:21;;;;;;;5.50;3.60;;;;;;100532.16;;;;106973;1277;64079;-29
2022/01/02 09:20:49;;;;;;;5.60;3.40;;;;;;100535.62;;;;107006;1278;64072;-29
2022/01/02 09:23:16;;;;;;;6.50;4.30;;;;;;100529.95;;;;106957;1278;63994;-40
2022/01/02 09:25:43;;;;;;;7.00;3.90;;;;;;100529.00;;;;106916;1279;63968;-40
2022/01/02 09:28:11;;;;;;;5.40;3.30;;;;;;100526.33;;;;106966;1278;64052;-30
2022/01/02 09:30:38;;;;;;;5.90;3.70;;;;;;100517.73;;;;106909;1281;64638;-28
2022/01/02 09:33:08;;;;;;;6.00;3.50;;;;;;100508.57;;;;106982;1278;64074;-38
2022/01/02 09:35:38;;;;;;;6.10;3.90;;;;;;100507.04;;;;106982;1277;65302;-40
2022/01/02 09:38:05;;;;;;;6.80;3.80;;;;;;100497.39;;;;106967;1277;64014;-30
2022/01/02 09:40:33;;;;;;;7.30;4.60;;;;;;100491.47;;;;106890;1281;64063;-28
2022/01/02 09:43:02;;;;;;;6.60;3.90;;;;;;100493.73;;;;106922;1281;64119;-29
2022/01/02 09:45:33;;;;;;;6.90;4.00;;;;;;100487.59;;;;106970;1281;64002;-30
2022/01/02 09:48:04;;;;;;;6.30;4.00;;;;;;100477.53;;;;106995;1277;65429;-29
2022/01/02 09:50:35;;;;;;;5.60;3.50;;;;;;100467.90;;;;107007;1278;63998;-40
2022/01/02 09:53:03;;;;;;;6.40;3.80;;;;;;100461.42;;;;107000;1277;63939;-41
2022/01/02 09:55:30;;;;;;;6.30;3.60;;;;;;100446.91;;;;106990;1278;64050;-29
2022/01/02 09:58:03;;;;;;;6.70;4.10;;;;;;100433.09;;;;106982;1278;64196;-29
2022/01/02 10:00:31;;;;;;;5.90;3.90;;;;;;100419.72;;;;107009;1277;65549;-29
2022/01/02 10:03:05;;;;;;;5.90;3.80;;;;;;100417.08;;;;106911;1278;63933;-29
2022/01/02 10:05:59;;;;;;;6.60;4.10;;;;;;100414.34;;;;106987;1278;63965;-29
2022/01/02 10:08:34;;;;;;;5.90;3.60;;;;;;100395.26;;;;106931;1277;64040;-28
2022/01/02 10:11:06;;;;;;;5.90;4.00;;;;;;100383.73;;;;107003;1277;64073;-30
2022/01/02 10:13:46;;;;;;;6.50;4.10;;;;;;100366.45;;;;106983;1278;65192;-30
2022/01/02 10:16:43;;;;;;;6.80;4.30;;;;;;100348.95;;;;107027;1277;63929;-28
2022/01/02 10:19:26;;;;;;;6.30;4.00;;;;;;100344.68;;;;106931;1279;64100;-40
2022/01/02 10:21:56;;;;;;;5.60;3.80;;;;;;100325.86;;;;106958;1278;64245;-40
2022/01/02 10:24:28;;;;;;;6.10;3.70;;;;;;100309.77;;;;107034;1277;64604;-28
2022/01/02 10:27:17;;;;;;;6.40;4.20;;;;;;100298.16;;;;106994;1277;65108;-29
2022/01/02 10:29:54;;;;;;;6.40;4.00;;;;;;100301.33;;;;106894;1277;64799;-29
2022/01/02 10:32:41;;;;;;;6.40;3.80;;;;;;100305.05;;;;106983;1277;64872;-40
2022/01/02 10:35:21;;;;;;;6.30;3.80;;;;;;100311.48;;;;106976;1277;64898;-40
2022/01/02 10:37:56;;;;;;;6.80;3.80;;;;;;100323.46;;;;106975;1278;64845;-40
2022/01/02 10:40:36;;;;;;;6.60;4.10;;;;;;100318.84;;;;107028;1277;67184;-28
2022/01/02 10:43:07;;;;;;;6.30;3.80;;;;;;100308.92;;;;106992;1277;64766;-33
2022/01/02 10:45:43;;;;;;;5.70;3.70;;;;;;100300.93;;;;107002;1277;64855;-29
2022/01/02 10:48:16;;;;;;;6.00;3.90;;;;;;100289.05;;;;106958;1277;64708;-30
2022/01/02 10:51:05;;;;;;;7.40;4.40;;;;;;100295.04;;;;107017;1277;64879;-28
2022/01/02 10:53:36;;;;;;;6.10;3.90;;;;;;100282.61;;;;107034;1277;67329;-40
2022/01/02 10:56:05;;;;;;;6.50;4.10;;;;;;100272.20;;;;106993;1277;64838;-40
2022/01/02 10:58:34;;;;;;;6.80;4.20;;;;;;100256.55;;;;106901;1279;64966;-28
2022/01/02 11:01:05;;;;;;;6.70;3.90;;;;;;100250.33;;;;107018;1277;64780;-30
2022/01/02 11:03:33;;;;;;;7.00;4.00;;;;;;100245.98;;;;106947;1279;65022;-28
2022/01/02 11:06:09;;;;;;;6.10;3.90;;;;;;100259.27;;;;106889;1281;67896;-34
2022/01/02 11:08:41;;;;;;;6.90;3.90;;;;;;100245.20;;;;106914;1279;64776;-40
2022/01/02 11:11:09;;;;;;;6.60;4.10;;;;;;100234.18;;;;106922;1278;64785;-40
2022/01/02 11:13:37;;;;;;;5.80;4.10;;;;;;100233.69;;;;106880;1279;64998;-39
2022/01/02 11:16:05;;;;;;;6.80;4.50;;;;;;100227.52;;;;107006;1277;64827;-46
2022/01/02 11:18:34;;;;;;;6.50;4.00;;;;;;100218.40;;;;107002;1277;65110;-30
2022/01/02 11:21:10;;;;;;;6.30;4.00;;;;;;100222.27;;;;106905;1281;64759;-27
2022/01/02 11:23:53;;;;;;;7.40;4.10;;;;;;100231.98;;;;106888;1279;64950;-35
2022/01/02 11:26:53;;;;;;;7.20;4.30;;;;;;100209.51;;;;106908;1278;65048;-35
2022/01/02 11:29:29;;;;;;;9.00;4.30;;;;;;100193.63;;;;106991;1278;65219;-27
2022/01/02 11:31:56;;;;;;;6.50;4.40;;;;;;100190.02;;;;106985;1277;67619;-29
2022/01/02 11:34:31;;;;;;;7.00;4.20;;;;;;100180.51;;;;107008;1277;62225;-29
2022/01/02 11:37:11;;;;;;;5.90;4.00;;;;;;100177.08;;;;106959;1277;64746;-26
2022/01/02 11:40:04;;;;;;;7.70;4.50;;;;;;100171.86;;;;106932;1278;64853;-36
2022/01/02 11:42:37;;;;;;;6.70;4.30;;;;;;100175.38;;;;106936;1278;64942;-39
2022/01/02 11:45:25;;;;;;;7.30;4.60;;;;;;100171.41;;;;106965;1278;66408;-33
2022/01/02 11:47:53;;;;;;;6.40;4.50;;;;;;100160.45;;;;106896;1277;64967;-35
2022/01/02 11:50:30;;;;;;;6.90;4.80;;;;;;100153.38;;;;106865;1278;64850;-31
2022/01/02 11:53:09;;;;;;;7.00;4.20;;;;;;100153.97;;;;106847;1281;64702;-36
2022/01/02 11:55:36;;;;;;;7.80;4.30;;;;;;100151.95;;;;106918;1279;64781;-29
2022/01/02 11:58:04;;;;;;;7.10;4.60;;;;;;100145.24;;;;106902;1279;64834;-31
2022/01/02 12:00:45;;;;;;;6.60;4.50;;;;;;100140.98;;;;106949;1277;64890;-27
2022/01/02 12:03:38;;;;;;;8.10;5.20;;;;;;100142.05;;;;106912;1278;64868;-27
2022/01/02 12:06:33;;;;;;;7.20;4.70;;;;;;100138.10;;;;106933;1277;64895;-27
2022/01/02 12:09:06;;;;;;;8.00;5.00;;;;;;100137.19;;;;106896;1279;64714;-28
2022/01/02 12:11:41;;;;;;;;;;;;;;100123.35;;;;106700;1279;67252;-27
2022/01/02 12:14:16;;;;;;;;;;;;;;100114.23;;;;106992;1277;64924;-28
2022/01/02 12:17:10;;;;;;;7.30;5.00;;;;;;100107.96;;;;106886;1279;64784;-33
2022/01/02 12:20:01;;;;;;;;;;;;;;100096.64;;;;106984;1277;65951;-39
2022/01/02 12:22:44;;;;;;;8.50;5.50;;;;;;100081.02;;;;106913;1278;64905;-39
2022/01/02 12:25:20;;;;;;;;;;;;;;100076.73;;;;107069;1278;67378;-28
2022/01/02 12:27:55;;;;;;;8.20;5.20;;;;;;100081.55;;;;107033;1277;64975;-29
2022/01/02 12:30:23;;;;;;;9.00;5.70;;;;;;100071.95;;;;106985;1277;64777;-38
2022/01/02 12:32:51;;;;;;;8.30;5.20;;;;;;100065.52;;;;106921;1279;64737;-38
2022/01/02 12:35:19;;;;;;;8.30;5.00;;;;;;100066.16;;;;107009;1277;64857;-27
2022/01/02 12:38:02;;;;;;;10.10;5.60;;;;;;100063.49;;;;106986;1277;66026;-27
2022/01/02 12:40:37;;;;;;;9.80;5.70;;;;;;100063.67;;;;106741;1282;64883;-27
2022/01/02 12:43:05;;;;;;;9.20;6.10;;;;;;100059.44;;;;106982;1277;64742;-31
2022/01/02 12:45:32;;;;;;;8.90;5.90;;;;;;100053.92;;;;106875;1278;64865;-27
2022/01/02 12:47:59;;;;;;;9.70;6.00;;;;;;100050.80;;;;106870;1278;64902;-25
2022/01/02 12:50:30;;;;;;;10.60;6.60;;;;;;100046.39;;;;106891;1281;66397;-38
2022/01/02 12:52:58;;;;;;;11.60;6.70;;;;;;100046.39;;;;106922;1278;64882;-39
2022/01/02 12:55:28;;;;;;;10.10;7.40;;;;;;100036.79;;;;106934;1278;65017;-38
2022/01/02 12:58:07;;;;;;;12.50;8.30;;;;;;100031.46;;;;106748;1278;64756;-39
2022/01/02 13:00:34;;;;;;;12.60;10.30;;;;;;100025.58;;;;106989;1278;64791;-28
2022/01/02 13:03:02;;;;;;;13.40;11.80;;;;;;100019.80;;;;106872;1281;64828;-28
2022/01/02 13:05:30;;;;;;;15.40;12.80;;;;;;100012.89;;;;106860;1279;64699;-42
2022/01/02 13:08:00;;;;;;;13.80;12.20;;;;;;100013.73;;;;106700;1281;64756;-39
2022/01/02 13:10:28;;;;;;;14.80;13.20;;;;;;100013.40;;;;106880;1279;64737;-39